Time;durP1;ratioP1;P1;durP2;ratioP2;P2;SDS_P1;SDS_P2;PMS_P1;PMS_P2;Temp;Humidity;BMP_temperature;BMP_pressure;BME280_temperature;BME280_humidity;BME280_pressure;Samples;Min_cycle;Max_cycle;Signal;HPM_P1;HPM_P2
2021/11/08 00:00:52;;;;;;;10.85;2.35;;;;;;;7.40;79.27;100582.47;4983035;28;20038;-79
2021/11/08 00:03:23;;;;;;;9.88;1.88;;;;;;;7.41;79.16;100581.63;4981393;28;20035;-80
2021/11/08 00:05:48;;;;;;;7.47;1.85;;;;;;;7.41;79.57;100589.50;4983270;28;20093;-80
2021/11/08 00:08:16;;;;;;;10.25;1.98;;;;;;;7.36;79.26;100580.69;4993248;28;20038;-80
2021/11/08 00:10:42;;;;;;;8.88;2.22;;;;;;;7.41;79.05;100586.88;4980507;28;20042;-79
2021/11/08 00:13:09;;;;;;;11.20;2.20;;;;;;;7.37;78.17;100582.44;4987756;28;20030;-79
2021/11/08 00:20:51;;;;;;;11.68;1.95;;;;;;;7.27;79.12;100578.00;4985419;28;20045;-78
2021/11/08 00:23:17;;;;;;;12.60;2.53;;;;;;;7.25;79.33;100582.34;4984713;28;20035;-79
2021/11/08 00:25:43;;;;;;;8.00;1.95;;;;;;;7.30;79.37;100580.63;4987304;28;20098;-79
2021/11/08 00:28:10;;;;;;;10.68;2.60;;;;;;;7.24;79.52;100586.72;4980133;28;20023;-79
2021/11/08 00:30:37;;;;;;;12.05;2.42;;;;;;;7.12;79.37;100580.47;4984038;28;20030;-79
2021/11/08 00:33:03;;;;;;;8.98;2.00;;;;;;;7.00;80.24;100571.66;4981995;28;20038;-79
2021/11/08 00:35:29;;;;;;;14.40;2.08;;;;;;;6.87;80.66;100574.16;4990997;28;20035;-79
2021/11/08 00:37:54;;;;;;;8.13;1.92;;;;;;;6.87;80.98;100585.50;4989780;28;20102;-79
2021/11/08 00:40:20;;;;;;;13.10;2.20;;;;;;;6.82;80.88;100587.22;4990978;28;20069;-79
2021/11/08 00:42:45;;;;;;;12.45;2.20;;;;;;;6.78;81.24;100588.03;4991738;28;20320;-79
2021/11/08 00:45:11;;;;;;;10.63;2.40;;;;;;;6.76;81.54;100593.28;4998971;28;20046;-80
2021/11/08 00:47:37;;;;;;;7.53;2.13;;;;;;;6.67;81.73;100593.16;4992122;28;20041;-79
2021/11/08 00:50:05;;;;;;;9.82;2.03;;;;;;;6.68;81.44;100589.69;4992015;28;20030;-80
2021/11/08 00:52:31;;;;;;;11.60;1.80;;;;;;;6.64;82.20;100589.66;4992346;28;20034;-80
2021/11/08 00:54:58;;;;;;;9.43;2.13;;;;;;;6.60;81.58;100596.56;4993139;28;20050;-80
2021/11/08 00:57:26;;;;;;;9.73;1.80;;;;;;;6.60;82.06;100596.56;4983844;28;20030;-79
2021/11/08 00:59:53;;;;;;;12.38;2.60;;;;;;;6.55;81.99;100591.31;4999745;28;20023;-80
2021/11/08 01:02:24;;;;;;;9.60;1.58;;;;;;;6.55;82.30;100606.16;4993221;28;20077;-80
2021/11/08 01:04:50;;;;;;;6.97;2.28;;;;;;;6.65;82.31;100615.00;4992113;28;20528;-80
2021/11/08 01:07:15;;;;;;;10.25;1.67;;;;;;;6.64;81.75;100603.63;4993366;28;20069;-79
2021/11/08 01:09:41;;;;;;;11.55;1.83;;;;;;;6.59;81.95;100603.56;4992881;28;20043;-79
2021/11/08 01:12:07;;;;;;;10.13;2.10;;;;;;;6.55;82.14;100608.78;4999871;28;20042;-79
2021/11/08 01:14:32;;;;;;;7.50;2.17;;;;;;;6.52;82.42;100612.25;4991698;28;20031;-79
2021/11/08 01:16:58;;;;;;;13.85;2.33;;;;;;;6.47;82.43;100619.19;4981827;28;20034;-80
2021/11/08 01:19:27;;;;;;;8.55;1.77;;;;;;;6.48;82.47;100622.69;4992030;28;20043;-80
2021/11/08 01:22:02;;;;;;;9.57;2.40;;;;;;;6.39;83.16;100633.91;4991899;28;20082;-80
2021/11/08 01:24:28;;;;;;;10.68;2.25;;;;;;;6.36;83.46;100637.38;4998253;28;20053;-80
2021/11/08 01:26:53;;;;;;;11.07;2.00;;;;;;;6.33;83.28;100633.84;4982443;28;20552;-80
2021/11/08 01:29:18;;;;;;;8.90;2.20;;;;;;;6.30;84.03;100641.69;4992097;28;20522;-80
2021/11/08 01:31:44;;;;;;;10.20;1.83;;;;;;;6.43;83.34;100635.72;4990586;28;20524;-80
2021/11/08 01:34:10;;;;;;;8.05;1.80;;;;;;;6.44;83.27;100637.47;4991082;28;20401;-80
2021/11/08 01:36:38;;;;;;;9.30;2.10;;;;;;;6.48;83.02;100626.19;4980321;28;20468;-80
2021/11/08 01:39:17;;;;;;;9.48;1.77;;;;;;;6.54;83.21;100634.09;4987402;28;20050;-80
2021/11/08 01:41:43;;;;;;;8.88;1.42;;;;;;;6.59;83.20;100635.03;4987681;28;20159;-79
2021/11/08 01:44:09;;;;;;;10.65;2.05;;;;;;;6.73;82.82;100639.56;4977334;28;20121;-80
2021/11/08 01:46:35;;;;;;;8.55;2.00;;;;;;;6.86;82.00;100636.22;4985913;28;20417;-79
2021/11/08 01:49:00;;;;;;;13.55;2.33;;;;;;;6.94;81.85;100637.19;4986740;28;20509;-80
2021/11/08 01:51:26;;;;;;;9.32;1.70;;;;;;;7.05;81.39;100637.31;4986548;28;20114;-80
2021/11/08 01:53:51;;;;;;;8.57;1.85;;;;;;;7.18;80.82;100638.31;4986128;28;20038;-79
2021/11/08 01:56:18;;;;;;;10.57;2.35;;;;;;;7.28;80.32;100636.63;4984922;28;20027;-79
2021/11/08 01:58:44;;;;;;;11.80;1.95;;;;;;;7.34;80.04;100640.19;4986690;28;20039;-79
2021/11/08 02:01:09;;;;;;;7.85;1.58;;;;;;;7.44;79.65;100636.78;4986978;28;20030;-79
2021/11/08 02:03:35;;;;;;;12.68;2.33;;;;;;;7.45;78.97;100643.78;4986287;28;20034;-79
2021/11/08 02:06:00;;;;;;;10.50;2.05;;;;;;;7.51;79.34;100634.19;4994975;28;20045;-80
2021/11/08 02:08:27;;;;;;;8.68;2.42;;;;;;;7.56;79.26;100637.75;4979361;28;20034;-79
2021/11/08 02:10:54;;;;;;;10.90;1.90;;;;;;;7.59;79.09;100633.38;4988526;28;20545;-79
2021/11/08 02:13:21;;;;;;;14.77;2.00;;;;;;;7.61;78.67;100636.03;4988310;28;20454;-79
2021/11/08 02:15:47;;;;;;;10.32;1.85;;;;;;;7.66;78.60;100642.19;4978902;28;20042;-79
2021/11/08 02:18:14;;;;;;;11.38;2.45;;;;;;;7.68;78.81;100640.47;4985975;28;20054;-79
2021/11/08 02:20:43;;;;;;;12.23;2.03;;;;;;;7.74;78.65;100640.50;4987903;28;20039;-78
2021/11/08 02:23:10;;;;;;;10.90;2.00;;;;;;;7.74;78.42;100639.63;4977714;28;20046;-80
2021/11/08 02:25:37;;;;;;;14.57;2.47;;;;;;;7.76;78.01;100649.28;4978817;28;20448;-79
2021/11/08 02:28:08;;;;;;;10.50;2.63;;;;;;;7.77;78.39;100645.78;4994109;28;20038;-80
2021/11/08 02:30:36;;;;;;;15.07;2.40;;;;;;;7.81;78.35;100642.31;4974984;28;20480;-78
2021/11/08 02:33:03;;;;;;;10.90;2.50;;;;;;;7.77;78.47;100640.50;4990361;28;20043;-79
2021/11/08 02:35:29;;;;;;;10.88;2.00;;;;;;;7.78;78.19;100647.56;4978250;28;20042;-80
2021/11/08 02:37:55;;;;;;;11.00;3.05;;;;;;;7.81;77.81;100642.31;4986662;28;20462;-79
2021/11/08 02:40:24;;;;;;;10.25;2.22;;;;;;;7.87;77.61;100649.34;4987122;28;20046;-79
2021/11/08 02:42:53;;;;;;;10.77;1.98;;;;;;;7.87;77.57;100644.09;4978594;28;20042;-80
2021/11/08 02:45:22;;;;;;;12.05;2.20;;;;;;;7.97;77.73;100663.44;4989539;28;20421;-79
2021/11/08 02:47:49;;;;;;;11.48;1.95;;;;;;;8.00;77.16;100666.09;4989143;28;20042;-80
2021/11/08 02:50:16;;;;;;;11.45;2.15;;;;;;;7.99;77.61;100669.56;4988771;28;20102;-80
2021/11/08 02:52:43;;;;;;;8.35;2.38;;;;;;;8.04;77.40;100670.47;4996455;28;20042;-80
2021/11/08 02:55:09;;;;;;;14.60;2.28;;;;;;;8.07;77.13;100670.50;4979151;28;20050;-80
2021/11/08 02:57:37;;;;;;;9.50;2.17;;;;;;;8.07;77.28;100665.25;4987998;28;20042;-80
2021/11/08 03:00:10;;;;;;;10.60;2.25;;;;;;;8.11;76.69;100662.63;4987896;28;20044;-79
2021/11/08 03:02:38;;;;;;;10.40;1.80;;;;;;;8.12;76.84;100679.28;4984994;28;20035;-79
2021/11/08 03:05:06;;;;;;;8.65;2.28;;;;;;;8.10;77.35;100670.53;4984829;28;20413;-79
2021/11/08 03:07:37;;;;;;;8.73;1.80;;;;;;;8.15;76.75;100676.69;4988085;28;20057;-80
2021/11/08 03:10:07;;;;;;;7.55;1.90;;;;;;;8.17;76.12;100685.44;4980269;28;20061;-79
2021/11/08 03:12:36;;;;;;;8.05;1.95;;;;;;;8.18;77.01;100681.97;4972845;28;20047;-79
2021/11/08 03:15:07;;;;;;;9.65;2.08;;;;;;;8.18;76.71;100668.81;4979259;28;20047;-79
2021/11/08 03:17:38;;;;;;;13.52;2.38;;;;;;;8.26;76.36;100667.09;4988952;28;20050;-79
2021/11/08 03:20:06;;;;;;;12.32;2.45;;;;;;;8.22;76.24;100667.06;4986217;28;20098;-79
2021/11/08 03:22:33;;;;;;;9.43;1.95;;;;;;;8.22;76.08;100674.97;4988147;28;20133;-80
2021/11/08 03:25:33;;;;;;;13.70;2.47;;;;;;;8.21;76.29;100684.63;4995443;28;20038;-79
2021/11/08 03:27:51;;;;;;;11.40;2.40;;;;;;;8.24;76.65;100679.38;4987525;28;20042;-80
2021/11/08 03:30:27;;;;;;;12.45;2.22;;;;;;;8.24;76.37;100668.84;4981945;28;20050;-79
2021/11/08 03:32:56;;;;;;;10.75;2.42;;;;;;;8.30;76.21;100674.13;4990445;28;20134;-79
2021/11/08 03:35:24;;;;;;;9.07;2.15;;;;;;;8.28;75.89;100675.91;4984272;28;20466;-79
2021/11/08 03:37:52;;;;;;;13.05;2.38;;;;;;;8.30;76.09;100675.88;4977467;28;20385;-77
2021/11/08 03:40:21;;;;;;;10.48;1.98;;;;;;;8.33;76.10;100689.94;4976655;28;20053;-79
2021/11/08 03:42:48;;;;;;;12.50;2.22;;;;;;;8.27;76.25;100689.03;4990544;28;20048;-79
2021/11/08 03:45:14;;;;;;;12.95;2.70;;;;;;;8.29;76.59;100688.16;4985261;28;20073;-79
2021/11/08 03:47:40;;;;;;;12.43;2.28;;;;;;;8.33;76.23;100692.56;4985455;28;20034;-79
2021/11/08 03:50:07;;;;;;;12.52;2.53;;;;;;;8.37;76.30;100700.47;4985780;28;20035;-78
2021/11/08 03:52:33;;;;;;;17.30;3.20;;;;;;;8.40;75.50;100701.41;4975126;28;20053;-79
2021/11/08 03:54:58;;;;;;;11.30;2.38;;;;;;;8.40;75.91;100704.03;4984286;28;20059;-79
2021/11/08 03:57:24;;;;;;;11.98;2.75;;;;;;;8.42;76.10;100714.56;4983880;28;20035;-79
2021/11/08 03:59:49;;;;;;;12.82;2.75;;;;;;;8.41;75.95;100707.53;4983880;28;20038;-79
2021/11/08 04:02:15;;;;;;;10.05;2.40;;;;;;;8.38;75.82;100718.00;4984346;28;20031;-79
2021/11/08 04:04:40;;;;;;;11.80;2.28;;;;;;;8.39;75.80;100717.16;4990551;28;20091;-79
2021/11/08 04:07:05;;;;;;;13.82;2.55;;;;;;;8.33;76.79;100725.84;4980996;28;20026;-79
2021/11/08 04:09:32;;;;;;;11.82;1.98;;;;;;;8.32;77.07;100729.38;4984392;28;20041;-80
2021/11/08 04:11:57;;;;;;;16.92;2.47;;;;;;;8.27;77.16;100731.97;4984162;28;20042;-79
2021/11/08 04:14:25;;;;;;;12.88;2.58;;;;;;;8.29;77.46;100730.22;4990988;28;20035;-79
2021/11/08 04:16:51;;;;;;;11.02;2.45;;;;;;;8.28;77.30;100728.50;4983458;28;20070;-79
2021/11/08 04:19:16;;;;;;;14.70;3.17;;;;;;;8.36;76.95;100744.31;4990685;28;20047;-79
2021/11/08 04:21:42;;;;;;;12.32;2.67;;;;;;;8.31;76.75;100739.00;4983813;28;20034;-80
2021/11/08 04:24:08;;;;;;;10.60;2.15;;;;;;;8.31;76.86;100748.66;4974447;28;20041;-80
2021/11/08 04:26:35;;;;;;;13.10;2.60;;;;;;;8.40;77.27;100742.59;4958394;28;20046;-79
2021/11/08 04:29:03;;;;;;;11.93;2.53;;;;;;;8.44;76.93;100747.03;4984484;28;20046;-79
2021/11/08 04:31:34;;;;;;;13.27;2.90;;;;;;;8.45;76.11;100754.03;4984206;28;20100;-78
2021/11/08 04:34:04;;;;;;;13.77;3.47;;;;;;;8.45;76.55;100747.03;4982033;28;20074;-79
2021/11/08 04:42:00;;;;;;;13.15;2.83;;;;;;;8.39;76.75;100759.22;4984484;28;20045;-78
2021/11/08 05:25:00;;;;;;;12.50;2.33;;;;;;;8.01;81.12;100792.25;4985160;28;20031;-78
2021/11/08 05:30:11;;;;;;;11.07;2.45;;;;;;;7.86;82.46;100805.28;4986604;28;20085;-78
2021/11/08 05:32:49;;;;;;;11.40;2.42;;;;;;;7.80;82.80;100807.81;4985279;28;20039;-78
2021/11/08 05:35:15;;;;;;;15.02;2.55;;;;;;;7.75;83.47;100799.88;4972322;28;20163;-78
2021/11/08 05:37:43;;;;;;;14.60;2.38;;;;;;;7.74;82.64;100808.66;4982173;28;20031;-78
2021/11/08 05:40:15;;;;;;;14.18;2.80;;;;;;;7.73;83.53;100819.13;4994473;28;20035;-78
2021/11/08 05:42:42;;;;;;;16.50;3.00;;;;;;;7.76;82.78;100813.94;4968313;28;20045;-78
2021/11/08 05:45:11;;;;;;;11.40;2.42;;;;;;;7.84;82.74;100814.88;4968085;28;20049;-78
2021/11/08 05:47:38;;;;;;;14.15;3.45;;;;;;;7.92;82.96;100813.19;4967160;28;20050;-79
2021/11/08 05:50:06;;;;;;;17.27;3.10;;;;;;;7.91;82.58;100821.94;4966842;28;20062;-78
2021/11/08 05:52:32;;;;;;;12.70;2.67;;;;;;;7.96;82.77;100817.59;4983689;28;20031;-79
2021/11/08 05:54:58;;;;;;;16.35;3.13;;;;;;;7.99;81.83;100820.28;4984089;28;20034;-78
2021/11/08 05:57:41;;;;;;;15.75;2.65;;;;;;;7.99;81.34;100825.53;4983265;28;20046;-78
2021/11/08 06:48:47;;;;;;;14.52;2.38;;;;;;;8.04;81.40;100854.47;4981474;28;20081;-78
2021/11/08 06:49:29;;;;;;;13.93;3.33;;;;;;;8.16;79.73;100899.28;4983264;28;20042;-78
2021/11/08 06:51:56;;;;;;;12.88;2.78;;;;;;;8.22;79.67;100899.34;4982101;28;20050;-78
2021/11/08 06:54:23;;;;;;;16.00;3.75;;;;;;;8.26;79.48;100908.16;4973972;28;20031;-78
2021/11/08 06:59:17;;;;;;;11.27;2.42;;;;;;;8.25;78.56;100909.91;4983247;28;20039;-78
2021/11/08 07:01:44;;;;;;;11.95;2.42;;;;;;;8.29;78.41;100913.44;4983818;28;20544;-78
2021/11/08 07:04:09;;;;;;;13.27;2.60;;;;;;;8.33;78.66;100921.38;4973841;28;20117;-78
2021/11/08 07:06:35;;;;;;;10.65;2.38;;;;;;;8.42;78.33;100930.25;4983585;28;20106;-78
2021/11/08 07:09:00;;;;;;;14.25;3.25;;;;;;;8.43;78.50;100935.50;4983022;28;20042;-79
2021/11/08 07:11:25;;;;;;;12.57;2.80;;;;;;;8.49;78.21;100932.06;4983418;28;20042;-79
2021/11/08 07:13:51;;;;;;;15.73;2.70;;;;;;;8.52;78.33;100942.63;4983753;28;20189;-78
2021/11/08 07:16:16;;;;;;;11.65;3.08;;;;;;;8.54;77.47;100941.75;4982827;28;20069;-78
2021/11/08 07:18:42;;;;;;;9.85;2.70;;;;;;;8.59;77.86;100949.66;4983054;28;20043;-78
2021/11/08 07:21:07;;;;;;;14.07;2.55;;;;;;;8.69;77.02;100945.38;4984317;28;20038;-78
2021/11/08 07:23:32;;;;;;;15.93;2.92;;;;;;;8.74;76.68;100954.19;4982227;28;20085;-78
2021/11/08 07:25:58;;;;;;;12.25;2.72;;;;;;;8.75;76.58;100964.75;4982739;28;20038;-78
2021/11/08 07:28:23;;;;;;;14.40;2.40;;;;;;;8.80;76.83;100963.88;4975686;28;20038;-78
2021/11/08 07:30:49;;;;;;;13.95;2.83;;;;;;;8.82;76.46;100962.16;4980576;28;20035;-78
2021/11/08 07:33:16;;;;;;;13.63;2.70;;;;;;;8.81;76.52;100968.28;4984746;28;20433;-78
2021/11/08 07:35:43;;;;;;;17.83;3.38;;;;;;;8.82;76.64;100968.28;4986082;28;20043;-78
2021/11/08 07:38:09;;;;;;;14.95;2.58;;;;;;;8.87;76.38;100960.44;4985523;28;20039;-78
2021/11/08 07:40:35;;;;;;;14.02;3.63;;;;;;;8.88;75.81;100973.63;4984086;28;20038;-78
2021/11/08 07:43:00;;;;;;;15.98;3.95;;;;;;;8.94;75.61;100963.13;4984974;28;20031;-78
2021/11/08 07:45:26;;;;;;;15.65;2.90;;;;;;;8.97;75.15;100964.91;4984208;28;20082;-78
2021/11/08 07:47:53;;;;;;;12.13;2.55;;;;;;;8.92;75.49;100975.38;4983775;28;20486;-78
2021/11/08 07:50:18;;;;;;;12.27;2.78;;;;;;;8.98;75.45;100977.19;4976119;28;20118;-79
2021/11/08 07:52:44;;;;;;;16.23;3.03;;;;;;;9.07;75.42;100977.25;4983412;28;20070;-78
2021/11/08 07:55:09;;;;;;;13.10;2.92;;;;;;;9.08;75.48;100973.75;4983498;28;20537;-78
2021/11/08 07:57:34;;;;;;;12.00;2.58;;;;;;;9.17;75.56;100976.47;4983909;28;20034;-78
2021/11/08 08:00:00;;;;;;;8.70;2.20;;;;;;;9.25;75.09;100986.13;4982923;28;20041;-78
2021/11/08 08:02:25;;;;;;;11.90;3.33;;;;;;;9.28;74.63;100984.44;4983374;28;20026;-79
2021/11/08 08:04:50;;;;;;;14.98;2.97;;;;;;;9.29;74.33;100996.72;4982084;28;20031;-78
2021/11/08 08:07:16;;;;;;;13.00;2.60;;;;;;;9.28;74.10;100978.28;4982536;28;20034;-79
2021/11/08 08:09:41;;;;;;;11.02;2.40;;;;;;;9.36;74.47;100988.00;4979408;28;20391;-79
2021/11/08 08:12:07;;;;;;;11.88;2.55;;;;;;;9.40;73.87;100994.16;4980433;28;20051;-78
2021/11/08 08:14:33;;;;;;;14.15;2.40;;;;;;;9.33;73.43;100997.63;4981224;28;20052;-78
2021/11/08 08:17:03;;;;;;;8.25;2.50;;;;;;;9.38;73.80;100995.91;4974127;28;20042;-78
2021/11/08 08:19:28;;;;;;;9.57;2.22;;;;;;;9.40;73.40;101004.69;4982826;28;20538;-78
2021/11/08 08:21:53;;;;;;;12.32;2.80;;;;;;;9.42;73.96;101002.94;4983738;28;20051;-78
2021/11/08 08:24:19;;;;;;;19.17;3.53;;;;;;;9.42;73.54;100997.69;4983833;28;20039;-78
2021/11/08 08:26:44;;;;;;;16.02;3.10;;;;;;;9.50;73.66;101003.00;4982916;28;20065;-78
2021/11/08 08:29:12;;;;;;;13.30;2.58;;;;;;;9.49;73.55;101010.03;4982619;28;20045;-78
2021/11/08 08:31:40;;;;;;;9.50;2.10;;;;;;;9.51;74.11;101002.09;4982344;28;20075;-78
2021/11/08 08:34:07;;;;;;;10.02;2.20;;;;;;;9.64;73.23;101010.13;4982806;28;20073;-78
2021/11/08 08:36:33;;;;;;;15.05;3.10;;;;;;;9.64;73.54;101007.47;4982928;28;20035;-78
2021/11/08 08:38:59;;;;;;;16.98;2.72;;;;;;;9.69;73.12;101011.88;4973598;28;20121;-78
2021/11/08 08:41:24;;;;;;;15.27;3.10;;;;;;;9.73;73.26;101005.75;4982059;28;20073;-78
2021/11/08 08:43:50;;;;;;;16.13;3.13;;;;;;;9.85;73.37;101013.69;4982847;28;20049;-78
2021/11/08 08:46:16;;;;;;;13.35;3.08;;;;;;;9.84;72.08;101009.31;4983330;28;20034;-78
2021/11/08 08:48:42;;;;;;;10.68;2.55;;;;;;;9.94;72.49;101019.03;4986842;28;20038;-78
2021/11/08 08:51:08;;;;;;;12.07;3.03;;;;;;;9.73;71.96;101016.31;4986792;28;20042;-78
2021/11/08 08:53:34;;;;;;;13.23;2.83;;;;;;;9.85;71.89;101029.53;4977265;28;20035;-78
2021/11/08 08:56:00;;;;;;;9.88;2.30;;;;;;;9.89;71.57;101023.41;4985617;28;20390;-78
2021/11/08 08:58:26;;;;;;;9.48;2.47;;;;;;;9.85;71.72;101026.88;4983631;28;20754;-78
2021/11/08 09:00:52;;;;;;;16.33;2.53;;;;;;;9.89;71.89;101039.22;4984045;28;20050;-78
2021/11/08 09:03:18;;;;;;;18.25;3.67;;;;;;;9.93;71.14;101032.19;4983712;28;20035;-78
2021/11/08 09:05:45;;;;;;;13.95;2.80;;;;;;;9.84;71.88;101039.19;4987066;28;20054;-78
2021/11/08 09:08:11;;;;;;;15.18;2.83;;;;;;;9.84;71.77;101043.59;4984055;28;20042;-79
2021/11/08 09:10:38;;;;;;;13.55;2.80;;;;;;;9.91;71.65;101037.47;4986583;28;20129;-78
2021/11/08 09:13:05;;;;;;;13.55;3.05;;;;;;;10.04;71.37;101036.66;4985433;28;20047;-79
2021/11/08 09:15:31;;;;;;;17.08;3.53;;;;;;;9.98;71.63;101036.63;4976910;28;20057;-78
2021/11/08 09:17:58;;;;;;;12.65;2.85;;;;;;;9.96;71.05;101032.22;4978540;28;20098;-78
2021/11/08 09:20:23;;;;;;;10.00;2.70;;;;;;;10.00;71.25;101032.22;4987654;28;20117;-78
2021/11/08 09:22:50;;;;;;;13.23;3.65;;;;;;;10.04;71.87;101052.47;4976922;28;20062;-79
2021/11/08 09:25:19;;;;;;;12.60;2.88;;;;;;;9.97;71.21;101066.50;4985746;28;20133;-79
2021/11/08 09:27:46;;;;;;;14.13;2.65;;;;;;;10.02;71.42;101056.84;4982368;28;20040;-77
2021/11/08 09:30:14;;;;;;;13.27;2.70;;;;;;;10.09;71.53;101050.75;4980145;28;20043;-78
2021/11/08 09:32:41;;;;;;;14.15;2.70;;;;;;;9.94;71.19;101055.94;4977403;28;20106;-78
2021/11/08 09:35:08;;;;;;;13.30;3.40;;;;;;;9.93;71.40;101051.56;4976857;28;20520;-78
2021/11/08 09:37:37;;;;;;;8.70;2.50;;;;;;;9.87;71.40;101065.56;4987214;28;20034;-78
2021/11/08 09:40:05;;;;;;;13.68;2.50;;;;;;;9.76;71.69;101071.66;4976939;28;20042;-78
2021/11/08 09:42:31;;;;;;;12.93;2.35;;;;;;;9.76;72.38;101061.13;4986215;28;20085;-78
2021/11/08 09:44:58;;;;;;;13.85;2.90;;;;;;;9.79;72.08;101067.28;4985812;28;20129;-79
2021/11/08 09:47:24;;;;;;;14.02;2.83;;;;;;;9.88;71.58;101069.97;4986619;28;20069;-78
2021/11/08 09:49:59;;;;;;;11.52;2.92;;;;;;;9.93;71.58;101075.28;4992332;28;20042;-78
2021/11/08 09:52:26;;;;;;;14.48;2.88;;;;;;;9.94;72.17;101076.16;4975796;28;20544;-79
2021/11/08 09:54:53;;;;;;;11.32;2.78;;;;;;;9.98;71.02;101101.66;4983794;28;20050;-79
2021/11/08 09:57:23;;;;;;;17.70;3.22;;;;;;;9.87;71.24;101091.06;4976448;28;20167;-78
2021/11/08 09:59:48;;;;;;;15.68;3.70;;;;;;;9.86;71.32;101089.31;4984244;28;20070;-78
2021/11/08 10:02:14;;;;;;;12.60;2.50;;;;;;;9.88;71.38;101088.44;4975588;28;20038;-78
2021/11/08 10:04:43;;;;;;;14.60;2.78;;;;;;;10.07;71.22;101083.25;4983453;28;20046;-78
2021/11/08 10:07:11;;;;;;;17.27;3.17;;;;;;;10.13;71.11;101095.59;4958834;28;20035;-78
2021/11/08 10:09:37;;;;;;;12.23;2.92;;;;;;;10.16;70.87;101075.38;4983662;28;20284;-79
2021/11/08 10:12:10;;;;;;;13.25;3.33;;;;;;;10.28;71.19;101077.22;4986113;28;20069;-78
2021/11/08 10:14:37;;;;;;;14.98;2.72;;;;;;;10.41;70.74;101086.06;4988495;28;20054;-78
2021/11/08 10:17:03;;;;;;;12.65;2.85;;;;;;;10.43;70.24;101095.75;4982283;28;20077;-78
2021/11/08 10:19:32;;;;;;;15.13;3.13;;;;;;;10.47;69.66;101089.59;4982077;28;20038;-78
2021/11/08 10:21:58;;;;;;;14.32;3.08;;;;;;;10.56;70.40;101098.41;4982953;28;20045;-78
2021/11/08 10:24:31;;;;;;;11.23;2.65;;;;;;;10.68;69.48;101087.91;4983277;28;20092;-78
2021/11/08 10:27:00;;;;;;;10.15;2.92;;;;;;;10.76;70.28;101088.78;4976115;28;20039;-78
2021/11/08 10:29:26;;;;;;;14.85;3.35;;;;;;;10.79;69.88;101101.13;4969682;28;20059;-78
2021/11/08 10:32:03;;;;;;;11.73;3.05;;;;;;;10.72;68.97;101094.97;4974559;28;20038;-78
2021/11/08 10:34:29;;;;;;;12.23;3.47;;;;;;;10.61;69.07;101109.88;4974161;28;20043;-78
2021/11/08 10:36:58;;;;;;;10.32;2.83;;;;;;;10.68;69.06;101106.38;4988109;28;20031;-78
2021/11/08 10:39:24;;;;;;;13.38;2.78;;;;;;;10.77;68.44;101095.84;4972343;28;20039;-80
2021/11/08 10:41:49;;;;;;;13.95;2.67;;;;;;;10.87;68.96;101097.63;4968204;28;20035;-78
2021/11/08 10:44:22;;;;;;;12.13;3.33;;;;;;;10.97;68.23;101102.03;4952883;28;20058;-78
2021/11/08 10:46:54;;;;;;;13.38;3.15;;;;;;;10.93;68.77;101089.72;4978972;28;20045;-78
2021/11/08 10:49:22;;;;;;;12.00;2.55;;;;;;;10.94;68.56;101095.88;4961558;28;20062;-78
2021/11/08 10:51:54;;;;;;;19.02;3.33;;;;;;;10.87;67.93;101100.28;4972690;28;20027;-78
2021/11/08 10:54:23;;;;;;;16.80;3.60;;;;;;;10.87;66.82;101121.41;4975998;28;20244;-78
2021/11/08 10:56:58;;;;;;;16.45;2.70;;;;;;;10.88;67.61;101106.44;4963990;28;20122;-78
2021/11/08 10:59:28;;;;;;;13.10;2.60;;;;;;;10.90;67.10;101112.59;4975592;28;20077;-78
2021/11/08 11:02:00;;;;;;;15.63;3.03;;;;;;;10.93;67.29;101102.91;4982480;28;20026;-78
2021/11/08 11:04:44;;;;;;;14.77;3.40;;;;;;;10.90;67.29;101110.84;4966389;28;20031;-78
2021/11/08 11:07:25;;;;;;;11.32;2.63;;;;;;;10.93;67.18;101108.19;4981205;28;20031;-78
2021/11/08 11:10:06;;;;;;;10.82;2.90;;;;;;;10.96;66.78;101108.19;4976919;28;20031;-78
2021/11/08 11:12:33;;;;;;;15.50;3.58;;;;;;;11.03;67.10;101110.84;4968786;28;20042;-78
2021/11/08 11:15:01;;;;;;;9.77;2.95;;;;;;;11.00;66.99;101095.00;4976024;28;20465;-77
2021/11/08 11:17:29;;;;;;;12.13;2.58;;;;;;;10.96;67.31;101120.53;4973327;28;20097;-78
2021/11/08 11:20:23;;;;;;;12.57;2.50;;;;;;;10.94;67.14;101109.06;4960962;28;20049;-78
2021/11/08 11:23:26;;;;;;;13.48;2.65;;;;;;;11.11;67.62;101106.47;4939536;28;20050;-78
2021/11/08 11:25:52;;;;;;;12.98;2.75;;;;;;;11.15;67.42;101110.84;4976351;28;20050;-77
2021/11/08 11:28:25;;;;;;;10.27;2.50;;;;;;;11.22;66.40;101112.63;4963841;28;20669;-77
2021/11/08 11:30:50;;;;;;;;;;;;;;;11.08;66.96;101109.06;4975854;28;20393;-78
2021/11/08 11:33:22;;;;;;;13.18;2.90;;;;;;;11.13;66.05;101107.31;4980444;28;19914;-79
2021/11/08 11:35:52;;;;;;;15.07;3.67;;;;;;;11.07;66.39;101124.06;4977486;28;20046;-78
2021/11/08 11:38:28;;;;;;;14.77;3.50;;;;;;;11.06;65.81;101117.03;4985133;28;20050;-77
2021/11/08 11:41:04;;;;;;;12.02;3.13;;;;;;;11.14;66.34;101124.97;4980663;28;20039;-78
2021/11/08 11:43:38;;;;;;;13.82;3.53;;;;;;;11.10;66.44;101104.69;4975813;28;20050;-78
2021/11/08 11:46:08;;;;;;;11.10;3.22;;;;;;;11.10;66.29;101113.47;4981685;28;20046;-78
2021/11/08 11:48:35;;;;;;;13.30;2.65;;;;;;;11.22;66.07;101111.75;4984175;28;20450;-77
2021/11/08 11:51:02;;;;;;;12.43;2.90;;;;;;;11.28;66.37;101109.97;4972298;28;20031;-78
2021/11/08 11:53:31;;;;;;;11.23;2.70;;;;;;;11.38;65.48;101108.22;4969021;28;20086;-77
2021/11/08 11:55:56;;;;;;;13.73;3.53;;;;;;;11.35;65.06;101098.53;4964172;28;20073;-77
2021/11/08 11:58:21;;;;;;;13.38;2.75;;;;;;;11.41;65.14;101101.16;4974731;28;20054;-77
2021/11/08 12:00:49;;;;;;;12.90;4.40;;;;;;;11.51;65.05;101106.47;4978643;28;20046;-78
2021/11/08 12:03:15;;;;;;;10.43;2.50;;;;;;;11.38;64.51;101108.22;4967966;28;20030;-78
2021/11/08 12:05:44;;;;;;;15.02;3.60;;;;;;;11.36;65.52;101104.69;4977410;28;20110;-78
2021/11/08 12:08:12;;;;;;;11.65;3.90;;;;;;;11.30;66.12;101102.94;4969210;28;20065;-78
2021/11/08 12:10:51;;;;;;;11.82;2.75;;;;;;;11.34;65.99;101107.34;4977994;28;20417;-78
2021/11/08 12:13:20;;;;;;;9.45;2.35;;;;;;;11.33;66.08;101105.56;4974386;28;20109;-77
2021/11/08 12:15:46;;;;;;;12.32;3.33;;;;;;;11.24;65.82;101105.59;4983790;28;20046;-78
2021/11/08 12:18:15;;;;;;;9.05;2.58;;;;;;;11.11;66.27;101104.69;4985450;28;20031;-78
2021/11/08 12:20:48;;;;;;;13.23;2.42;;;;;;;11.12;67.78;101116.13;4976784;28;20120;-77
2021/11/08 12:23:24;;;;;;;9.27;2.45;;;;;;;11.21;66.93;101116.13;4976303;28;20165;-78
2021/11/08 12:25:55;;;;;;;14.23;2.60;;;;;;;11.28;66.83;101112.63;4963790;28;20110;-78
2021/11/08 12:28:23;;;;;;;12.88;2.78;;;;;;;11.14;65.90;101109.97;4964095;28;20039;-78
2021/11/08 12:30:52;;;;;;;10.70;2.83;;;;;;;11.18;65.15;101117.00;4967144;28;20069;-78
2021/11/08 12:33:21;;;;;;;13.95;2.72;;;;;;;11.16;66.15;101112.59;4960722;28;20051;-78
2021/11/08 12:35:47;;;;;;;12.43;3.60;;;;;;;11.25;66.77;101112.63;4965171;28;20048;-78
2021/11/08 12:38:24;;;;;;;14.65;2.40;;;;;;;11.28;66.46;101104.69;4977066;28;20095;-78
2021/11/08 12:41:05;;;;;;;14.93;2.80;;;;;;;11.36;67.03;101110.84;4953772;28;20134;-78
2021/11/08 12:43:34;;;;;;;16.15;2.90;;;;;;;11.48;66.89;101109.13;4975740;28;20082;-78
2021/11/08 12:46:14;;;;;;;9.77;2.88;;;;;;;11.36;66.54;101105.56;4977314;28;20043;-78
2021/11/08 12:48:41;;;;;;;14.80;3.38;;;;;;;11.29;66.50;101105.56;4977673;28;20046;-78
2021/11/08 12:51:08;;;;;;;12.48;2.65;;;;;;;11.26;66.88;101110.84;4977279;28;20069;-77
2021/11/08 12:53:39;;;;;;;13.82;2.92;;;;;;;11.28;66.80;101111.75;4977498;28;20047;-78
2021/11/08 12:56:23;;;;;;;14.68;3.13;;;;;;;11.33;67.11;101109.97;4977852;28;20089;-78
2021/11/08 12:58:55;;;;;;;10.23;2.28;;;;;;;11.16;67.40;101107.31;4975781;28;20042;-78
2021/11/08 13:01:24;;;;;;;15.70;2.90;;;;;;;11.27;67.26;101110.00;4977781;28;20037;-78
2021/11/08 13:03:52;;;;;;;12.15;3.70;;;;;;;11.22;67.14;101112.63;4977603;28;20050;-78
2021/11/08 13:06:29;;;;;;;9.85;2.83;;;;;;;11.14;67.75;101111.75;4977158;28;20043;-78
2021/11/08 13:09:16;;;;;;;14.40;2.65;;;;;;;11.14;67.37;101117.03;4977784;28;20030;-78
2021/11/08 13:11:56;;;;;;;10.48;2.65;;;;;;;11.09;67.41;101118.78;4975537;28;20049;-78